createdAt,value
2019-04-10T00:00:56.257Z,8.40
2019-04-10T00:03:32.883Z,8.20
2019-04-10T00:06:00.488Z,7.47
2019-04-10T00:08:32.470Z,6.13
2019-04-10T00:11:04.638Z,4.93
2019-04-10T00:13:36.483Z,5.30
2019-04-10T00:16:09.177Z,6.17
2019-04-10T00:18:40.238Z,7.97
2019-04-10T00:21:11.357Z,8.57
2019-04-10T00:23:42.219Z,9.73
2019-04-10T00:26:13.495Z,9.63
2019-04-10T00:28:45.249Z,7.73
2019-04-10T00:31:15.997Z,8.50
2019-04-10T00:33:47.199Z,5.67
2019-04-10T00:36:18.207Z,5.73
2019-04-10T00:38:49.173Z,3.47
2019-04-10T00:41:22.352Z,3.90
2019-04-10T00:43:53.205Z,5.60
2019-04-10T00:46:24.345Z,4.70
2019-04-10T00:48:54.972Z,6.53
2019-04-10T00:51:25.830Z,6.97
2019-04-10T00:53:57.280Z,8.07
2019-04-10T00:56:28.374Z,6.60
2019-04-10T00:58:59.652Z,4.20
2019-04-10T01:01:31.940Z,5.13
2019-04-10T01:04:02.858Z,7.90
2019-04-10T01:06:33.941Z,5.20
2019-04-10T01:09:08.788Z,6.40
2019-04-10T01:11:40.105Z,6.10
2019-04-10T01:14:11.651Z,7.70
2019-04-10T01:16:43.887Z,7.17
2019-04-10T01:19:16.134Z,6.97
2019-04-10T01:21:46.965Z,6.37
2019-04-10T01:24:17.660Z,7.37
2019-04-10T01:26:48.317Z,7.03
2019-04-10T01:29:19.691Z,6.67
2019-04-10T01:31:51.258Z,5.77
2019-04-10T01:34:22.242Z,6.70
2019-04-10T01:36:54.603Z,7.20
2019-04-10T01:39:30.534Z,6.77
2019-04-10T01:42:01.333Z,6.93
2019-04-10T01:44:33.005Z,5.17
2019-04-10T01:47:04.794Z,7.83
2019-04-10T01:49:35.490Z,5.43
2019-04-10T01:52:06.918Z,6.03
2019-04-10T01:54:37.717Z,5.93
2019-04-10T01:57:10.342Z,6.50
2019-04-10T01:59:42.444Z,4.20
2019-04-10T02:02:16.878Z,4.27
2019-04-10T02:04:48.288Z,4.70
2019-04-10T02:07:20.261Z,4.83
2019-04-10T02:09:51.868Z,4.23
2019-04-10T02:12:23.635Z,3.53
2019-04-10T02:14:54.526Z,4.70
2019-04-10T02:17:25.430Z,4.53
2019-04-10T02:19:58.692Z,4.83
2019-04-10T02:22:30.838Z,5.73
2019-04-10T02:25:03.297Z,5.93
2019-04-10T02:27:34.403Z,6.33
2019-04-10T02:30:10.354Z,7.50
2019-04-10T02:32:43.304Z,7.17
2019-04-10T02:35:17.181Z,9.17
2019-04-10T02:37:49.500Z,8.20
2019-04-10T02:40:19.307Z,7.00
2019-04-10T02:42:51.326Z,8.10
2019-04-10T02:45:23.662Z,4.70
2019-04-10T02:47:56.603Z,4.77
2019-04-10T02:50:29.381Z,4.20
2019-04-10T02:53:01.394Z,5.90
2019-04-10T02:55:33.375Z,5.77
2019-04-10T02:58:05.802Z,4.83
2019-04-10T03:00:37.899Z,5.10
2019-04-10T03:03:09.501Z,6.77
2019-04-10T03:05:42.669Z,5.53
2019-04-10T03:08:15.895Z,4.40
2019-04-10T03:10:53.768Z,5.33
2019-04-10T03:13:21.753Z,3.93
2019-04-10T03:15:53.562Z,4.43
2019-04-10T03:18:25.116Z,3.63
2019-04-10T03:20:56.553Z,7.33
2019-04-10T03:23:27.424Z,5.57
2019-04-10T03:25:59.470Z,6.60
2019-04-10T03:28:31.978Z,5.23
2019-04-10T03:31:05.413Z,4.37
2019-04-10T03:33:55.324Z,5.80
2019-04-10T03:36:27.685Z,4.30
2019-04-10T03:39:01.845Z,4.33
2019-04-10T03:41:31.104Z,2.90
2019-04-10T03:44:02.629Z,4.17
2019-04-10T03:46:33.381Z,2.87
2019-04-10T03:49:05.346Z,5.53
2019-04-10T03:51:36.728Z,2.83
2019-04-10T03:54:07.538Z,4.43
2019-04-10T03:56:38.329Z,5.23
2019-04-10T03:59:09.372Z,4.70
2019-04-10T04:01:40.952Z,4.13
2019-04-10T04:04:11.851Z,5.73
2019-04-10T04:06:42.533Z,5.03
2019-04-10T04:09:15.052Z,5.03
2019-04-10T04:11:46.445Z,5.97
2019-04-10T04:14:17.323Z,4.73
2019-04-10T04:16:49.150Z,5.93
2019-04-10T04:19:20.054Z,6.03
2019-04-10T04:21:50.669Z,6.37
2019-04-10T04:24:24.734Z,4.73
2019-04-10T04:26:55.497Z,5.83
2019-04-10T04:29:26.907Z,5.63
2019-04-10T04:31:59.020Z,4.60
2019-04-10T04:34:29.971Z,6.03
2019-04-10T04:37:00.812Z,5.37
2019-04-10T04:39:32.935Z,5.20
2019-04-10T04:42:05.084Z,5.47
2019-04-10T04:44:37.482Z,5.57
2019-04-10T04:47:09.645Z,5.37
2019-04-10T04:49:40.681Z,8.90
2019-04-10T04:52:14.224Z,6.80
2019-04-10T04:54:45.645Z,5.23
2019-04-10T04:57:17.041Z,6.80
2019-04-10T04:59:48.336Z,5.13
2019-04-10T05:02:19.937Z,4.27
2019-04-10T05:04:51.847Z,5.33
2019-04-10T05:07:22.754Z,4.73
2019-04-10T05:09:54.569Z,2.10
2019-04-10T05:12:25.544Z,5.27
2019-04-10T05:14:56.432Z,4.93
2019-04-10T05:17:27.463Z,2.87
2019-04-10T05:19:58.700Z,4.83
2019-04-10T05:22:30.337Z,3.43
2019-04-10T05:25:01.447Z,2.20
2019-04-10T05:27:33.069Z,3.07
2019-04-10T05:30:06.427Z,3.80
2019-04-10T05:32:37.593Z,4.43
2019-04-10T05:35:10.060Z,3.27
2019-04-10T05:37:41.200Z,3.53
2019-04-10T05:40:12.140Z,3.20
2019-04-10T05:42:43.201Z,3.10
2019-04-10T05:45:14.842Z,3.70
2019-04-10T05:47:46.558Z,4.67
2019-04-10T05:50:17.662Z,4.10
2019-04-10T05:52:48.739Z,3.33
2019-04-10T05:55:20.449Z,3.37
2019-04-10T05:57:55.251Z,3.23
2019-04-10T06:00:27.020Z,4.17
2019-04-10T06:03:00.524Z,3.17
2019-04-10T06:05:32.107Z,2.97
2019-04-10T06:08:03.231Z,3.40
2019-04-10T06:10:34.970Z,2.77
2019-04-10T06:13:06.818Z,3.13
2019-04-10T06:15:39.209Z,2.07
2019-04-10T06:18:12.810Z,2.97
2019-04-10T06:20:45.267Z,2.03
2019-04-10T06:23:17.508Z,2.03
2019-04-10T06:25:50.140Z,4.50
2019-04-10T06:28:25.462Z,2.97
2019-04-10T06:30:58.597Z,3.33
2019-04-10T06:33:29.801Z,2.97
2019-04-10T06:36:00.803Z,2.90
2019-04-10T06:38:32.938Z,3.47
2019-04-10T06:41:06.289Z,3.97
2019-04-10T06:43:37.255Z,4.07
2019-04-10T06:46:08.349Z,3.17
2019-04-10T06:48:40.369Z,3.83
2019-04-10T06:51:12.301Z,1.90
2019-04-10T06:53:43.346Z,2.67
2019-04-10T06:56:14.466Z,3.30
2019-04-10T06:58:45.144Z,4.37
2019-04-10T07:01:16.671Z,3.27
2019-04-10T07:03:56.634Z,4.10
2019-04-10T07:06:36.289Z,3.90
2019-04-10T07:08:57.110Z,3.03
2019-04-10T07:11:30.835Z,2.73
2019-04-10T07:14:01.609Z,2.57
2019-04-10T07:16:34.096Z,3.60
2019-04-10T07:19:08.599Z,2.70
2019-04-10T07:21:38.699Z,2.57
2019-04-10T07:24:12.411Z,3.70
2019-04-10T07:26:46.314Z,2.37
2019-04-10T07:29:18.735Z,3.53
2019-04-10T07:31:52.840Z,2.70
2019-04-10T07:34:27.924Z,2.80
2019-04-10T07:36:58.119Z,3.27
2019-04-10T07:39:32.090Z,3.17
2019-04-10T07:42:04.130Z,2.50
2019-04-10T07:44:35.989Z,2.93
2019-04-10T07:47:08.878Z,3.93
2019-04-10T07:49:40.086Z,2.57
2019-04-10T07:52:10.897Z,3.70
2019-04-10T07:54:44.388Z,2.47
2019-04-10T07:57:14.394Z,3.90
2019-04-10T07:59:45.345Z,2.83
2019-04-10T08:02:16.453Z,3.77
2019-04-10T08:04:47.377Z,2.60
2019-04-10T08:07:28.577Z,3.20
2019-04-10T08:09:51.924Z,3.37
2019-04-10T08:12:23.511Z,3.40
2019-04-10T08:14:56.099Z,2.43
2019-04-10T08:17:28.277Z,2.20
2019-04-10T08:19:59.958Z,3.80
2019-04-10T08:22:32.816Z,3.33
2019-04-10T08:25:10.779Z,3.80
2019-04-10T08:27:41.933Z,3.03
2019-04-10T08:30:15.342Z,1.77
2019-04-10T08:32:54.730Z,3.20
2019-04-10T08:35:20.904Z,2.80
2019-04-10T08:37:53.272Z,2.67
2019-04-10T08:40:24.613Z,2.10
2019-04-10T08:42:55.981Z,2.93
2019-04-10T08:45:38.605Z,3.20
2019-04-10T08:48:01.420Z,2.70
2019-04-10T08:50:32.467Z,2.80
2019-04-10T08:53:04.107Z,3.40
2019-04-10T08:55:36.122Z,2.70
2019-04-10T08:58:08.332Z,3.67
2019-04-10T09:00:40.594Z,1.97
2019-04-10T09:03:11.533Z,2.13
2019-04-10T09:05:42.744Z,2.30
2019-04-10T09:08:13.494Z,3.17
2019-04-10T09:10:44.790Z,3.80
2019-04-10T09:13:16.776Z,4.13
2019-04-10T09:15:47.974Z,2.87
2019-04-10T09:18:21.054Z,3.20
2019-04-10T09:20:51.741Z,2.77
2019-04-10T09:23:32.025Z,4.13
2019-04-10T09:25:57.715Z,3.53
2019-04-10T09:28:28.731Z,3.53
2019-04-10T09:30:59.528Z,3.20
2019-04-10T09:33:32.446Z,3.97
2019-04-10T09:36:05.470Z,3.90
2019-04-10T09:38:36.979Z,3.10
2019-04-10T09:41:09.987Z,2.87
2019-04-10T09:43:42.166Z,3.80
2019-04-10T09:46:16.193Z,3.27
2019-04-10T09:48:49.874Z,2.90
2019-04-10T09:51:22.186Z,2.97
2019-04-10T09:53:54.170Z,2.87
2019-04-10T09:56:27.584Z,3.17
2019-04-10T09:59:02.590Z,2.13
2019-04-10T10:01:34.390Z,4.70
2019-04-10T10:04:06.873Z,2.77
2019-04-10T10:06:39.521Z,4.40
2019-04-10T10:09:11.047Z,4.07
2019-04-10T10:11:42.793Z,4.13
2019-04-10T10:14:16.610Z,4.60
2019-04-10T10:16:48.423Z,4.27
2019-04-10T10:19:19.872Z,4.57
2019-04-10T10:21:52.611Z,4.93
2019-04-10T10:24:25.000Z,3.10
2019-04-10T10:26:57.732Z,3.70
2019-04-10T10:29:30.732Z,3.67
2019-04-10T10:32:02.690Z,4.87
2019-04-10T10:34:34.588Z,4.13
2019-04-10T10:37:08.379Z,3.50
2019-04-10T10:39:41.151Z,4.87
2019-04-10T10:42:13.756Z,2.87
2019-04-10T10:44:45.945Z,3.10
2019-04-10T10:47:17.406Z,3.73
2019-04-10T10:49:48.764Z,4.13
2019-04-10T10:52:19.473Z,3.17
2019-04-10T10:54:51.387Z,2.90
2019-04-10T10:57:22.787Z,3.53
2019-04-10T10:59:54.245Z,3.50
2019-04-10T11:02:25.583Z,4.30
2019-04-10T11:05:02.205Z,4.67
2019-04-10T11:07:35.320Z,4.30
2019-04-10T11:10:08.401Z,4.97
2019-04-10T11:12:42.365Z,3.97
2019-04-10T11:15:16.202Z,4.67
2019-04-10T11:17:49.863Z,4.17
2019-04-10T11:20:21.077Z,3.83
2019-04-10T11:22:51.974Z,3.67
2019-04-10T11:25:23.777Z,4.30
2019-04-10T11:27:56.464Z,4.03
2019-04-10T11:30:28.737Z,4.83
2019-04-10T11:33:02.599Z,4.60
2019-04-10T11:35:34.859Z,5.13
2019-04-10T11:38:05.983Z,4.63
2019-04-10T11:40:39.059Z,4.40
2019-04-10T11:43:12.392Z,5.20
2019-04-10T11:45:51.638Z,7.10
2019-04-10T11:48:19.763Z,3.57
2019-04-10T11:50:59.122Z,4.80
2019-04-10T11:53:27.230Z,3.57
2019-04-10T11:56:00.151Z,4.00
2019-04-10T11:58:31.798Z,4.40
2019-04-10T12:01:08.207Z,4.30
2019-04-10T12:03:37.126Z,5.20
2019-04-10T12:06:11.903Z,4.37
2019-04-10T12:09:08.267Z,4.27
2019-04-10T12:11:18.815Z,3.90
2019-04-10T12:13:48.268Z,4.10
2019-04-10T12:16:21.702Z,3.27
2019-04-10T12:18:53.504Z,4.70
2019-04-10T12:21:24.656Z,4.87
2019-04-10T12:23:58.928Z,3.67
2019-04-10T12:26:33.912Z,3.30
2019-04-10T12:29:05.173Z,4.57
2019-04-10T12:31:37.327Z,4.80
2019-04-10T12:34:08.801Z,5.27
2019-04-10T12:36:40.359Z,4.90
2019-04-10T12:39:12.082Z,4.63
2019-04-10T12:41:44.336Z,5.03
2019-04-10T12:44:16.501Z,5.43
2019-04-10T12:46:47.373Z,4.87
2019-04-10T12:49:19.720Z,4.37
2019-04-10T12:51:52.110Z,4.57
2019-04-10T12:54:23.795Z,4.80
2019-04-10T12:56:56.734Z,4.77
2019-04-10T12:59:28.507Z,5.20
2019-04-10T13:02:00.729Z,8.97
2019-04-10T13:04:34.539Z,4.30
2019-04-10T13:07:07.380Z,7.07
2019-04-10T13:09:40.245Z,4.07
2019-04-10T13:12:11.191Z,2.97
2019-04-10T13:14:43.122Z,5.83
2019-04-10T13:17:14.443Z,4.20
2019-04-10T13:19:45.401Z,4.30
2019-04-10T13:22:16.584Z,4.30
2019-04-10T13:24:50.696Z,3.23
2019-04-10T13:27:23.095Z,4.70
2019-04-10T13:29:54.525Z,5.33
2019-04-10T13:32:28.181Z,5.10
2019-04-10T13:34:59.775Z,3.20
2019-04-10T13:37:31.704Z,3.97
2019-04-10T13:40:03.523Z,4.40
2019-04-10T13:42:35.605Z,5.17
2019-04-10T13:45:11.193Z,3.67
2019-04-10T13:47:44.954Z,4.67
2019-04-10T13:50:16.884Z,5.23
2019-04-10T13:52:54.122Z,3.30
2019-04-10T13:55:26.289Z,4.60
2019-04-10T13:58:00.031Z,5.23
2019-04-10T14:00:33.665Z,3.47
2019-04-10T14:03:07.557Z,6.80
2019-04-10T14:05:41.090Z,5.53
2019-04-10T14:08:12.642Z,5.77
2019-04-10T14:10:44.589Z,3.73
2019-04-10T14:13:16.213Z,3.77
2019-04-10T14:15:48.443Z,5.17
2019-04-10T14:18:21.850Z,3.63
2019-04-10T14:20:53.829Z,3.90
2019-04-10T14:23:28.662Z,4.37
2019-04-10T14:26:04.565Z,2.77
2019-04-10T14:28:37.538Z,4.90
2019-04-10T14:31:12.800Z,3.40
2019-04-10T14:33:47.375Z,4.57
2019-04-10T14:36:21.019Z,6.00
2019-04-10T14:39:07.810Z,2.87
2019-04-10T14:41:29.589Z,3.93
2019-04-10T14:44:01.918Z,3.57
2019-04-10T14:46:34.361Z,3.90
2019-04-10T14:49:05.280Z,4.60
2019-04-10T14:51:36.670Z,4.30
2019-04-10T14:54:11.628Z,4.13
2019-04-10T14:56:43.598Z,3.97
2019-04-10T14:59:15.759Z,6.63
2019-04-10T15:01:48.609Z,5.43
2019-04-10T15:04:22.332Z,6.70
2019-04-10T15:06:55.573Z,5.30
2019-04-10T15:09:27.865Z,4.67
2019-04-10T15:12:02.838Z,5.53
2019-04-10T15:14:35.326Z,4.87
2019-04-10T15:17:08.013Z,4.60
2019-04-10T15:19:41.391Z,5.10
2019-04-10T15:22:13.728Z,4.47
2019-04-10T15:24:46.933Z,5.07
2019-04-10T15:27:19.501Z,3.57
2019-04-10T15:29:50.844Z,2.87
2019-04-10T15:32:22.959Z,4.60
2019-04-10T15:34:55.799Z,5.27
2019-04-10T15:37:27.001Z,9.47
2019-04-10T15:40:13.556Z,5.33
2019-04-10T15:42:34.285Z,4.73
2019-04-10T15:45:07.343Z,4.27
2019-04-10T15:47:48.739Z,5.53
2019-04-10T15:50:12.397Z,3.83
2019-04-10T15:52:43.114Z,4.03
2019-04-10T15:55:15.287Z,5.40
2019-04-10T15:57:53.132Z,4.20
2019-04-10T16:00:19.812Z,4.63
2019-04-10T16:02:53.865Z,4.30
2019-04-10T16:05:25.888Z,4.57
2019-04-10T16:07:58.667Z,4.93
2019-04-10T16:10:34.052Z,5.33
2019-04-10T16:13:24.559Z,5.03
2019-04-10T16:15:56.969Z,5.73
2019-04-10T16:18:30.550Z,4.90
2019-04-10T16:21:02.652Z,5.23
2019-04-10T16:23:35.911Z,6.60
2019-04-10T16:26:08.945Z,3.73
2019-04-10T16:28:39.970Z,5.67
2019-04-10T16:31:10.991Z,4.33
2019-04-10T16:33:41.947Z,7.00
2019-04-10T16:36:13.177Z,6.47
2019-04-10T16:38:44.959Z,6.50
2019-04-10T16:41:17.312Z,5.23
2019-04-10T16:43:50.682Z,5.20
2019-04-10T16:46:21.824Z,4.40
2019-04-10T16:48:53.497Z,5.10
2019-04-10T16:51:24.693Z,5.43
2019-04-10T16:53:55.927Z,4.87
2019-04-10T16:56:26.941Z,7.50
2019-04-10T16:58:58.476Z,4.80
2019-04-10T17:01:29.401Z,6.63
2019-04-10T17:04:00.869Z,5.17
2019-04-10T17:06:32.481Z,5.07
2019-04-10T17:09:04.807Z,2.63
2019-04-10T17:11:37.205Z,4.07
2019-04-10T17:14:08.086Z,6.40
2019-04-10T17:16:39.969Z,6.10
2019-04-10T17:19:11.818Z,7.50
2019-04-10T17:21:42.886Z,6.03
2019-04-10T17:24:15.348Z,8.70
2019-04-10T17:26:46.795Z,5.43
2019-04-10T17:29:17.759Z,6.40
2019-04-10T17:31:48.873Z,5.27
2019-04-10T17:34:20.812Z,5.53
2019-04-10T17:36:52.001Z,4.47
2019-04-10T17:39:23.048Z,3.70
2019-04-10T17:41:53.896Z,4.40
2019-04-10T17:44:25.594Z,4.43
2019-04-10T17:46:57.611Z,3.63
2019-04-10T17:49:29.776Z,3.30
2019-04-10T17:52:03.644Z,6.30
2019-04-10T17:54:34.637Z,4.77
2019-04-10T17:57:06.533Z,5.13
2019-04-10T17:59:38.550Z,4.33
2019-04-10T18:02:11.711Z,5.67
2019-04-10T18:04:44.253Z,3.90
2019-04-10T18:07:16.269Z,5.67
2019-04-10T18:09:50.648Z,3.17
2019-04-10T18:12:21.803Z,5.73
2019-04-10T18:14:52.920Z,4.30
2019-04-10T18:17:24.948Z,4.93
2019-04-10T18:19:56.584Z,4.10
2019-04-10T18:22:28.944Z,9.43
2019-04-10T18:25:01.354Z,7.40
2019-04-10T18:27:33.319Z,5.20
2019-04-10T18:30:06.234Z,5.17
2019-04-10T18:32:38.714Z,5.87
2019-04-10T18:35:14.217Z,6.97
2019-04-10T18:37:48.047Z,5.03
2019-04-10T18:40:21.180Z,6.03
2019-04-10T18:42:55.031Z,2.63
2019-04-10T18:45:27.989Z,3.90
2019-04-10T18:47:59.277Z,7.33
2019-04-10T18:50:32.160Z,5.23
2019-04-10T18:53:08.689Z,5.13
2019-04-10T18:55:40.635Z,5.57
2019-04-10T18:58:15.800Z,5.23
2019-04-10T19:01:05.200Z,7.37
2019-04-10T19:03:56.304Z,6.60
2019-04-10T19:06:25.248Z,7.27
2019-04-10T19:09:06.378Z,6.93
2019-04-10T19:11:35.437Z,8.67
2019-04-10T19:14:07.733Z,8.27
2019-04-10T19:16:41.949Z,8.70
2019-04-10T19:19:12.784Z,11.50
2019-04-10T19:21:44.027Z,12.80
2019-04-10T19:24:15.271Z,12.43
2019-04-10T19:26:47.443Z,12.17
2019-04-10T19:29:21.405Z,12.93
2019-04-10T19:31:54.124Z,13.83
2019-04-10T19:34:27.488Z,17.63
2019-04-10T19:37:01.636Z,21.27
2019-04-10T19:39:34.745Z,28.67
2019-04-10T19:42:09.125Z,38.70
2019-04-10T19:44:43.420Z,35.67
2019-04-10T19:47:17.974Z,35.40
2019-04-10T19:49:51.294Z,28.23
2019-04-10T19:52:22.593Z,29.83
2019-04-10T19:54:55.478Z,34.43
2019-04-10T19:57:29.004Z,37.40
2019-04-10T20:00:06.495Z,29.80
2019-04-10T20:02:40.266Z,29.90
2019-04-10T20:05:15.018Z,27.30
2019-04-10T20:07:47.157Z,25.63
2019-04-10T20:10:19.572Z,21.83
2019-04-10T20:12:55.212Z,27.47
2019-04-10T20:15:28.915Z,23.43
2019-04-10T20:18:08.651Z,23.93
2019-04-10T20:20:39.999Z,14.93
2019-04-10T20:23:12.740Z,10.13
2019-04-10T20:25:46.239Z,12.27
2019-04-10T20:28:17.697Z,10.23
2019-04-10T20:30:52.300Z,10.90
2019-04-10T20:33:25.424Z,10.90
2019-04-10T20:35:58.387Z,11.90
2019-04-10T20:38:32.374Z,12.13
2019-04-10T20:41:04.664Z,12.73
2019-04-10T20:43:37.394Z,15.00
2019-04-10T20:46:11.577Z,15.37
2019-04-10T20:48:42.547Z,13.87
2019-04-10T20:51:14.830Z,13.77
2019-04-10T20:53:48.454Z,15.63
2019-04-10T20:56:20.390Z,15.57
2019-04-10T20:58:53.257Z,16.43
2019-04-10T21:01:24.503Z,18.30
2019-04-10T21:03:56.632Z,17.10
2019-04-10T21:06:29.708Z,17.03
2019-04-10T21:09:03.094Z,19.53
2019-04-10T21:11:58.785Z,18.40
2019-04-10T21:14:17.543Z,17.90
2019-04-10T21:16:49.552Z,15.87
2019-04-10T21:19:20.843Z,22.53
2019-04-10T21:21:51.828Z,22.30
2019-04-10T21:24:23.238Z,22.87
2019-04-10T21:26:54.886Z,19.77
2019-04-10T21:29:46.458Z,17.17
2019-04-10T21:32:26.719Z,18.43
2019-04-10T21:34:58.076Z,17.00
2019-04-10T21:37:30.443Z,14.27
2019-04-10T21:40:02.716Z,15.97
2019-04-10T21:42:33.642Z,15.00
2019-04-10T21:45:07.218Z,12.70
2019-04-10T21:47:38.687Z,16.10
2019-04-10T21:50:11.047Z,18.30
2019-04-10T21:52:42.012Z,19.30
2019-04-10T21:55:14.932Z,22.03
2019-04-10T21:57:47.043Z,21.00
2019-04-10T22:00:20.758Z,16.77
2019-04-10T22:02:54.133Z,15.87
2019-04-10T22:05:25.736Z,15.77
2019-04-10T22:08:03.114Z,18.13
2019-04-10T22:10:36.310Z,19.87
2019-04-10T22:13:09.407Z,19.43
2019-04-10T22:15:41.830Z,19.60
2019-04-10T22:18:12.956Z,19.87
2019-04-10T22:20:43.935Z,16.93
2019-04-10T22:23:16.027Z,18.77
2019-04-10T22:25:47.936Z,21.13
2019-04-10T22:28:19.191Z,19.70
2019-04-10T22:30:50.918Z,20.30
2019-04-10T22:33:22.293Z,20.10
2019-04-10T22:35:53.255Z,18.10
2019-04-10T22:38:25.008Z,17.00
2019-04-10T22:40:56.343Z,15.87
2019-04-10T22:43:28.079Z,18.87
2019-04-10T22:46:00.475Z,19.73
2019-04-10T22:48:32.940Z,18.40
2019-04-10T22:51:03.866Z,15.63
2019-04-10T22:53:35.278Z,16.20
2019-04-10T22:56:06.946Z,18.07
2019-04-10T22:58:39.241Z,18.30
2019-04-10T23:01:11.441Z,19.77
2019-04-10T23:03:43.195Z,18.10
2019-04-10T23:06:15.291Z,15.93
2019-04-10T23:08:47.510Z,16.67
2019-04-10T23:11:30.476Z,15.20
2019-04-10T23:13:51.590Z,14.33
2019-04-10T23:16:22.580Z,13.50
2019-04-10T23:18:53.945Z,14.77
2019-04-10T23:21:25.049Z,11.57
2019-04-10T23:23:56.811Z,18.87
2019-04-10T23:26:29.126Z,19.10
2019-04-10T23:29:00.154Z,19.93
2019-04-10T23:31:32.088Z,15.50
2019-04-10T23:34:04.210Z,13.57
2019-04-10T23:36:35.203Z,15.40
2019-04-10T23:39:08.063Z,14.67
2019-04-10T23:41:38.679Z,11.23
2019-04-10T23:44:09.421Z,15.70
2019-04-10T23:46:40.402Z,15.90
2019-04-10T23:49:11.538Z,14.03
2019-04-10T23:51:43.281Z,13.43
2019-04-10T23:54:15.158Z,13.50
2019-04-10T23:56:49.347Z,16.63
2019-04-10T23:59:20.621Z,14.20
